Time;durP1;ratioP1;P1;durP2;ratioP2;P2;SDS_P1;SDS_P2;PMS_P1;PMS_P2;Temp;Humidity;BMP_temperature;BMP_pressure;BME280_temperature;BME280_humidity;BME280_pressure;Samples;Min_cycle;Max_cycle;Signal;HPM_P1;HPM_P2
2021/12/29 00:01:39;;;;;;;43.57;9.60;;;;;;;2.53;100.00;120067.34;5039372;28;20029;-69
2021/12/29 00:04:04;;;;;;;42.77;9.63;;;;;;;2.55;100.00;120071.56;5039865;28;20051;-70
2021/12/29 00:06:30;;;;;;;34.33;8.73;;;;;;;2.61;100.00;120416.31;5036404;28;20039;-69
2021/12/29 00:08:55;;;;;;;40.63;9.37;;;;;;;2.74;100.00;120775.91;5041354;28;20578;-69
2021/12/29 00:11:21;;;;;;;39.93;9.27;;;;;;;2.88;100.00;121470.25;5040668;28;20851;-69
2021/12/29 00:13:47;;;;;;;41.80;10.23;;;;;;;2.98;100.00;120825.25;5037083;28;20727;-69
2021/12/29 00:16:13;;;;;;;40.20;10.37;;;;;;;3.00;100.00;121160.91;5038653;28;20277;-69
2021/12/29 00:18:38;;;;;;;47.80;8.97;;;;;;;2.95;100.00;120486.47;5038036;28;20028;-69
2021/12/29 00:21:06;;;;;;;65.87;9.93;;;;;;;2.98;100.00;120825.25;5044601;28;20207;-69
2021/12/29 00:23:32;;;;;;;52.80;10.50;;;;;;;2.92;100.00;121477.66;5048979;28;20029;-69
2021/12/29 00:25:57;;;;;;;40.43;10.07;;;;;;;3.14;100.00;122521.13;5041355;28;20029;-69
2021/12/29 00:28:23;;;;;;;46.77;10.63;;;;;;;3.31;100.00;123556.03;5042405;28;20021;-69
2021/12/29 00:30:48;;;;;;;55.37;10.83;;;;;;;3.32;100.00;122891.28;5043126;28;20027;-69
2021/12/29 00:33:14;;;;;;;45.87;9.63;;;;;;;3.31;100.00;122556.28;5042683;28;20017;-70
2021/12/29 00:35:41;;;;;;;48.53;10.57;;;;;;;3.41;100.00;122244.72;5053253;28;20109;-69
2021/12/29 00:38:09;;;;;;;54.47;10.37;;;;;;;3.56;100.00;123940.66;5041597;28;20155;-69
2021/12/29 00:40:35;;;;;;;56.87;10.90;;;;;;;3.51;100.00;121934.09;5041235;28;20094;-69
2021/12/29 00:43:01;;;;;;;49.50;10.60;;;;;;;3.52;100.00;120603.81;5039313;28;20025;-70
2021/12/29 00:45:31;;;;;;;53.40;10.90;;;;;;;3.66;100.00;119633.66;5051816;28;20485;-69
2021/12/29 00:47:56;;;;;;;54.07;11.07;;;;;;;3.65;100.00;118966.16;5038551;28;20296;-69
2021/12/29 00:50:22;;;;;;;50.70;11.03;;;;;;;3.65;100.00;118966.16;5042594;28;20025;-69
2021/12/29 00:52:47;;;;;;;59.30;11.47;;;;;;;3.79;100.00;119660.69;5039184;28;20493;-69
2021/12/29 00:55:14;;;;;;;49.17;11.57;;;;;;;3.75;100.00;119319.56;5046954;28;20292;-70
2021/12/29 00:57:40;;;;;;;50.97;10.80;;;;;;;3.73;100.00;118317.25;5040084;28;20029;-70
2021/12/29 01:00:12;;;;;;;59.97;11.80;;;;;;;3.75;100.00;117323.44;5048553;28;20584;-69
2021/12/29 01:02:38;;;;;;;64.57;12.15;;;;;;;3.78;100.00;117330.59;5038767;28;20329;-69
2021/12/29 01:05:05;;;;;;;53.70;10.43;;;;;;;3.87;100.00;117015.25;5041347;28;20048;-70
2021/12/29 01:07:31;;;;;;;46.43;11.50;;;;;;;3.98;100.00;117370.34;5039429;28;20597;-70
2021/12/29 01:09:56;;;;;;;94.57;11.40;;;;;;;3.80;100.00;116335.94;5042080;28;20021;-69
2021/12/29 01:12:23;;;;;;;52.23;10.90;;;;;;;3.74;100.00;115326.47;5038319;28;20048;-69
2021/12/29 01:14:54;;;;;;;62.03;10.73;;;;;;;3.80;100.00;115007.09;5039004;28;20478;-70
2021/12/29 01:17:20;;;;;;;64.60;13.15;;;;;;;3.88;100.00;115022.09;5042260;28;20553;-69
2021/12/29 01:19:46;;;;;;;55.20;10.50;;;;;;;3.91;100.00;116025.63;5042738;28;20265;-69
2021/12/29 01:22:11;;;;;;;53.90;11.20;;;;;;;3.94;100.00;116030.66;5037648;28;20056;-70
2021/12/29 01:24:37;;;;;;;57.70;11.77;;;;;;;3.97;100.00;116036.69;5043845;28;20044;-70
2021/12/29 01:27:03;;;;;;;67.87;11.90;;;;;;;4.00;100.00;116709.06;5042968;28;20021;-70
2021/12/29 01:29:30;;;;;;;58.27;12.50;;;;;;;3.96;100.00;116035.69;5044173;28;20539;-69
2021/12/29 01:31:56;;;;;;;66.27;11.97;;;;;;;3.93;100.00;115697.09;5038098;28;20064;-70
2021/12/29 01:34:22;;;;;;;66.60;13.23;;;;;;;3.99;100.00;116041.72;5046243;28;20487;-69
2021/12/29 01:36:47;;;;;;;64.87;12.93;;;;;;;3.97;100.00;115372.56;5043497;28;20253;-69
2021/12/29 01:39:15;;;;;;;87.07;12.87;;;;;;;3.96;100.00;115370.56;5039641;28;20036;-69
2021/12/29 01:41:42;;;;;;;157.00;15.80;;;;;;;3.91;100.00;116025.63;5049285;28;20017;-70
2021/12/29 01:44:10;;;;;;;242.20;17.60;;;;;;;3.82;100.00;115674.97;5043518;28;20177;-69
2021/12/29 01:46:36;;;;;;;207.27;15.00;;;;;;;3.76;100.00;115662.94;5039262;28;20025;-70
2021/12/29 01:49:01;;;;;;;105.83;12.37;;;;;;;3.85;100.00;116677.59;5050458;28;20505;-70
2021/12/29 01:51:29;;;;;;;105.27;13.27;;;;;;;3.88;100.00;116019.56;5047077;28;20016;-70
2021/12/29 01:54:15;;;;;;;142.37;15.03;;;;;;;3.83;100.00;115345.53;5040735;28;20060;-69
2021/12/29 01:56:44;;;;;;;94.00;13.03;;;;;;;3.93;100.00;115364.56;5046528;28;20587;-68
2021/12/29 01:59:09;;;;;;;225.97;16.53;;;;;;;3.90;100.00;115691.06;5048067;28;20452;-67
2021/12/29 02:01:35;;;;;;;241.73;17.53;;;;;;;3.88;100.00;115687.06;5045265;28;20012;-67
2021/12/29 02:04:00;;;;;;;170.77;15.10;;;;;;;3.94;100.00;116364.25;5044676;22;20057;-69
2021/12/29 02:06:26;;;;;;;128.83;14.17;;;;;;;3.85;100.00;116013.50;5044540;28;20063;-69
2021/12/29 02:08:54;;;;;;;188.87;15.70;;;;;;;3.83;100.00;114347.31;5046999;28;20511;-69
2021/12/29 02:11:29;;;;;;;257.53;18.07;;;;;;;3.85;100.00;114682.69;5044010;28;20475;-71
2021/12/29 02:14:01;;;;;;;170.40;15.23;;;;;;;3.86;100.00;114685.66;5037772;28;20061;-71
2021/12/29 02:16:28;;;;;;;142.13;15.13;;;;;;;3.91;100.00;115028.09;5044594;28;20040;-71
2021/12/29 02:18:55;;;;;;;229.73;19.00;;;;;;;3.99;100.00;116041.72;5044123;28;20040;-71
2021/12/29 02:21:23;;;;;;;242.63;18.13;;;;;;;4.00;100.00;116376.41;5041070;28;20119;-71
2021/12/29 02:26:27;;;;;;;185.03;18.57;;;;;;;4.14;100.00;116069.97;5049463;28;20174;-71
2021/12/29 02:28:55;;;;;;;250.60;18.60;;;;;;;4.08;100.00;116392.53;5041182;28;20033;-69
2021/12/29 02:31:22;;;;;;;299.43;21.17;;;;;;;4.09;100.00;115396.63;5038311;28;20539;-69
2021/12/29 02:33:47;;;;;;;320.23;21.60;;;;;;;4.02;100.00;115050.09;5039318;28;20056;-69
2021/12/29 02:36:19;;;;;;;278.53;18.20;;;;;;;4.19;100.00;115747.34;5046512;28;20056;-69
2021/12/29 02:38:50;;;;;;;269.80;19.90;;;;;;;4.18;100.00;115081.06;5037107;28;20056;-69
2021/12/29 02:41:16;;;;;;;305.83;21.60;;;;;;;4.24;100.00;115424.69;5049165;28;20159;-69
2021/12/29 02:43:41;;;;;;;225.63;18.20;;;;;;;4.24;100.00;114759.41;5038769;28;20534;-69
2021/12/29 02:46:11;;;;;;;262.47;19.93;;;;;;;4.16;100.00;114744.47;5046734;28;20033;-69
2021/12/29 02:48:46;;;;;;;246.97;18.53;;;;;;;4.27;100.00;114432.81;5049805;28;20039;-69
2021/12/29 02:51:11;;;;;;;234.40;18.20;;;;;;;4.36;100.00;115782.56;5044676;28;20391;-74
2021/12/29 02:53:37;;;;;;;221.57;17.63;;;;;;;4.47;100.00;115138.03;5041915;28;20029;-69
2021/12/29 02:56:04;;;;;;;246.40;17.30;;;;;;;4.48;100.00;114806.28;5046521;28;20025;-69
2021/12/29 02:58:31;;;;;;;165.80;15.63;;;;;;;4.57;100.00;114491.44;5053145;28;20043;-69
2021/12/29 03:00:58;;;;;;;167.97;16.83;;;;;;;4.71;100.00;116517.94;5049603;28;20590;-69
2021/12/29 03:03:27;;;;;;;147.87;16.80;;;;;;;4.77;100.00;116195.03;5026417;28;20045;-69
2021/12/29 03:05:53;;;;;;;167.83;15.43;;;;;;;4.75;100.00;113860.63;5026379;28;20416;-69
2021/12/29 03:08:20;;;;;;;131.00;14.07;;;;;;;4.81;100.00;114205.31;5025691;28;20273;-69
2021/12/29 03:10:46;;;;;;;113.40;13.87;;;;;;;4.88;100.00;114219.22;5036190;28;20028;-69
2021/12/29 03:13:14;;;;;;;103.63;14.27;;;;;;;4.97;100.00;115236.09;5021650;28;20029;-69
2021/12/29 03:15:39;;;;;;;120.30;13.43;;;;;;;4.95;100.00;115233.06;5023416;28;20033;-69
2021/12/29 03:18:06;;;;;;;189.00;15.47;;;;;;;4.83;100.00;113876.41;5031635;28;20029;-69
2021/12/29 03:20:33;;;;;;;89.30;11.47;;;;;;;5.02;100.00;115578.19;5027659;28;20036;-69
2021/12/29 03:22:59;;;;;;;123.03;13.33;;;;;;;4.94;100.00;115230.06;5021862;28;20281;-69
2021/12/29 03:25:25;;;;;;;103.37;12.23;;;;;;;4.99;100.00;115241.09;5033934;28;20123;-69
2021/12/29 03:27:58;;;;;;;89.17;13.30;;;;;;;5.07;100.00;114922.97;5029412;28;20553;-69
2021/12/29 03:30:24;;;;;;;95.70;12.03;;;;;;;5.16;100.00;114607.84;5018034;28;20261;-69
2021/12/29 03:32:52;;;;;;;99.10;12.73;;;;;;;5.21;100.00;114616.81;5020790;28;20485;-69
2021/12/29 03:35:20;;;;;;;106.90;12.67;;;;;;;5.16;100.00;115940.47;5031155;28;20036;-71
2021/12/29 03:37:45;;;;;;;86.93;11.50;;;;;;;5.16;100.00;115940.47;5027623;28;20426;-71
2021/12/29 03:40:11;;;;;;;108.73;11.27;;;;;;;5.22;100.00;116952.50;5025905;28;20627;-68
2021/12/29 03:42:37;;;;;;;123.87;13.17;;;;;;;5.18;100.00;116944.38;5021112;28;20029;-71
2021/12/29 03:45:04;;;;;;;152.73;13.93;;;;;;;5.17;100.00;116942.34;5029252;28;20641;-71
2021/12/29 03:47:30;;;;;;;164.33;13.90;;;;;;;5.06;100.00;115920.34;5025733;28;20462;-71
2021/12/29 03:49:55;;;;;;;224.53;14.43;;;;;;;5.16;100.00;116939.28;5022972;28;20093;-71
2021/12/29 03:52:20;;;;;;;151.90;13.00;;;;;;;5.11;100.00;115930.44;5032534;28;20083;-71
2021/12/29 03:54:46;;;;;;;104.67;11.47;;;;;;;5.14;100.00;114603.84;5026171;28;20021;-71
2021/12/29 03:57:11;;;;;;;109.60;12.27;;;;;;;5.17;100.00;113943.66;5022982;28;20032;-71
2021/12/29 03:59:37;;;;;;;111.07;12.17;;;;;;;5.14;100.00;113604.72;5032689;28;20047;-72
2021/12/29 04:02:02;;;;;;;99.17;11.70;;;;;;;5.17;100.00;112611.75;5029740;28;20053;-71
2021/12/29 04:04:28;;;;;;;75.20;10.10;;;;;;;5.19;100.00;112614.69;5020445;28;20267;-71
2021/12/29 04:06:54;;;;;;;105.83;12.10;;;;;;;5.21;100.00;112618.63;5027523;28;20053;-71
2021/12/29 04:09:20;;;;;;;104.27;10.93;;;;;;;5.16;100.00;112609.78;5029914;28;20526;-71
2021/12/29 04:11:50;;;;;;;74.70;10.57;;;;;;;5.20;100.00;112617.59;5025350;28;20359;-71
2021/12/29 04:14:17;;;;;;;70.77;9.73;;;;;;;5.21;100.00;111953.78;5020867;28;20061;-71
2021/12/29 04:16:45;;;;;;;92.77;10.13;;;;;;;5.26;100.00;112629.38;5035917;28;20012;-71
2021/12/29 04:19:14;;;;;;;86.73;9.97;;;;;;;5.24;100.00;112625.47;5027889;28;20516;-71
2021/12/29 04:21:43;;;;;;;96.00;10.93;;;;;;;5.28;100.00;112300.31;5019678;28;20029;-71
2021/12/29 04:24:09;;;;;;;62.73;9.03;;;;;;;5.23;100.00;113288.50;5020534;28;20118;-71
2021/12/29 04:26:37;;;;;;;58.47;8.53;;;;;;;5.30;100.00;113969.38;5031969;28;20028;-71
2021/12/29 04:29:08;;;;;;;58.43;8.17;;;;;;;5.35;100.00;114311.47;5025253;28;20366;-71
2021/12/29 04:31:33;;;;;;;78.03;9.30;;;;;;;5.25;100.00;112959.41;5030201;28;20044;-71
2021/12/29 04:33:59;;;;;;;73.60;8.97;;;;;;;5.24;100.00;113957.53;5022322;28;20478;-71
2021/12/29 04:36:24;;;;;;;75.30;8.60;;;;;;;5.28;100.00;113965.44;5028114;28;20025;-71
2021/12/29 04:38:51;;;;;;;49.33;7.30;;;;;;;5.36;100.00;114312.47;5022451;28;20426;-76
2021/12/29 04:41:16;;;;;;;60.13;6.47;;;;;;;5.27;100.00;113963.47;5027353;28;20658;-71
2021/12/29 04:43:42;;;;;;;46.80;7.03;;;;;;;5.42;100.00;114325.34;5020865;28;20060;-71
2021/12/29 04:46:09;;;;;;;41.77;6.67;;;;;;;5.39;100.00;114651.63;5021154;28;20575;-71
2021/12/29 04:48:38;;;;;;;36.77;5.77;;;;;;;5.38;100.00;114982.88;5021774;28;20251;-71
2021/12/29 04:51:11;;;;;;;41.47;6.63;;;;;;;5.34;100.00;115641.41;5029311;28;20074;-71
2021/12/29 04:53:37;;;;;;;40.43;5.57;;;;;;;5.39;100.00;114318.41;5021036;28;20413;-72
2021/12/29 04:56:03;;;;;;;43.47;5.03;;;;;;;5.30;100.00;113303.22;5021421;28;20022;-71
2021/12/29 04:58:29;;;;;;;43.77;5.23;;;;;;;5.32;100.00;112973.13;5023863;28;20029;-71
2021/12/29 05:00:55;;;;;;;38.37;4.73;;;;;;;5.36;100.00;113313.06;5031330;28;20021;-71
2021/12/29 05:03:21;;;;;;;37.47;4.87;;;;;;;5.44;100.00;114995.81;5020366;28;20548;-71
2021/12/29 05:08:24;;;;;;;42.60;5.10;;;;;;;5.42;100.00;113992.16;5030084;28;20481;-71
2021/12/29 05:08:38;;;;;;;33.33;5.00;;;;;;;5.42;100.00;113991.16;5023802;28;20037;-71
2021/12/29 05:11:07;;;;;;;49.47;5.23;;;;;;;5.37;100.00;114647.66;5024728;28;20078;-71
2021/12/29 05:13:39;;;;;;;36.63;4.47;;;;;;;5.38;100.00;114317.41;5018854;28;20100;-71
2021/12/29 05:16:05;;;;;;;37.47;4.45;;;;;;;5.39;100.00;115319.13;5027842;28;20021;-71
2021/12/29 05:18:32;;;;;;;42.37;4.10;;;;;;;5.36;100.00;114978.88;5023138;28;20033;-71
2021/12/29 05:20:58;;;;;;;35.53;4.20;;;;;;;5.34;100.00;115308.13;5023702;28;20025;-71
2021/12/29 05:23:25;;;;;;;39.73;4.30;;;;;;;5.36;100.00;115645.44;5027156;28;20445;-71
2021/12/29 05:25:52;;;;;;;30.67;4.07;;;;;;;5.40;100.00;114653.59;5024551;28;20017;-71
2021/12/29 05:28:18;;;;;;;32.00;4.77;;;;;;;5.39;100.00;114651.63;5019615;28;20115;-71
2021/12/29 05:30:45;;;;;;;33.47;3.87;;;;;;;5.47;100.00;114334.28;5031986;28;20493;-71
2021/12/29 05:33:10;;;;;;;40.97;4.40;;;;;;;5.43;100.00;115326.13;5027236;28;20302;-71
2021/12/29 05:35:36;;;;;;;37.67;4.03;;;;;;;5.45;100.00;115996.84;5026258;28;20140;-72
2021/12/29 05:38:03;;;;;;;39.27;3.70;;;;;;;5.46;100.00;115998.88;5021691;28;20636;-71
2021/12/29 05:40:28;;;;;;;45.07;4.60;;;;;;;5.40;100.00;115653.44;5023258;28;20280;-71
2021/12/29 05:42:56;;;;;;;42.40;4.37;;;;;;;5.39;100.00;114652.63;5025409;28;20690;-69
2021/12/29 05:45:23;;;;;;;31.53;4.07;;;;;;;5.42;100.00;115324.13;5019120;28;20324;-69
2021/12/29 05:47:48;;;;;;;30.83;3.37;;;;;;;5.44;100.00;114328.31;5020999;28;20048;-69
2021/12/29 05:50:18;;;;;;;37.33;3.80;;;;;;;5.48;100.00;115003.84;5022212;28;20030;-69
2021/12/29 05:52:43;;;;;;;43.23;3.87;;;;;;;5.52;100.00;114677.50;5022542;28;20279;-69
2021/12/29 05:55:09;;;;;;;37.73;4.37;;;;;;;5.47;100.00;114668.53;5021623;28;20044;-69
2021/12/29 05:57:34;;;;;;;50.40;4.00;;;;;;;5.35;100.00;114311.47;5029150;28;20420;-69
2021/12/29 06:00:00;;;;;;;47.97;3.60;;;;;;;5.44;100.00;113995.09;5023277;28;20034;-69
2021/12/29 06:02:26;;;;;;;39.70;4.53;;;;;;;5.45;100.00;113997.09;5017576;28;20041;-72
2021/12/29 06:04:51;;;;;;;41.73;4.40;;;;;;;5.50;100.00;114341.22;5017194;28;20044;-72
2021/12/29 06:07:17;;;;;;;47.63;4.37;;;;;;;5.45;100.00;112998.66;5020926;28;20025;-72
2021/12/29 06:09:42;;;;;;;46.00;4.53;;;;;;;5.40;100.00;112654.78;5020478;28;20029;-69
2021/12/29 06:12:08;;;;;;;41.67;3.97;;;;;;;5.52;100.00;112012.09;5022261;28;20033;-69
2021/12/29 06:14:34;;;;;;;40.83;3.77;;;;;;;5.45;100.00;111999.47;5017958;28;20366;-69
2021/12/29 06:17:00;;;;;;;43.53;4.40;;;;;;;5.48;100.00;111671.31;5023983;28;20116;-70
2021/12/29 06:19:25;;;;;;;37.27;4.13;;;;;;;5.47;100.00;111669.38;5025684;28;20139;-69
2021/12/29 06:21:51;;;;;;;50.87;4.87;;;;;;;5.48;100.00;111672.28;5027623;28;20029;-69
2021/12/29 06:24:16;;;;;;;47.97;4.93;;;;;;;5.56;100.00;112019.88;5022484;28;20037;-69
2021/12/29 06:26:41;;;;;;;40.60;4.07;;;;;;;5.57;100.00;111688.75;5024879;28;20021;-69
2021/12/29 06:29:07;;;;;;;35.57;5.17;;;;;;;5.58;100.00;111690.72;5019597;28;20270;-69
2021/12/29 06:31:33;;;;;;;51.23;5.00;;;;;;;5.56;100.00;111353.78;5025521;28;20076;-72
2021/12/29 06:33:59;;;;;;;44.80;6.47;;;;;;;5.62;100.00;111698.47;5022036;28;20029;-72
2021/12/29 06:36:25;;;;;;;44.67;5.57;;;;;;;5.60;100.00;111361.56;5023705;28;20029;-72
2021/12/29 06:38:51;;;;;;;46.83;5.47;;;;;;;5.67;100.00;112040.28;5026545;28;20516;-72
2021/12/29 06:41:16;;;;;;;53.30;5.17;;;;;;;5.67;100.00;110043.03;5023680;28;20453;-72
2021/12/29 06:43:43;;;;;;;46.57;5.43;;;;;;;5.66;100.00;109042.47;5027902;28;20108;-72
2021/12/29 06:46:09;;;;;;;53.13;5.27;;;;;;;5.69;100.00;109048.13;5026248;28;20044;-72
2021/12/29 06:48:34;;;;;;;40.07;5.43;;;;;;;5.75;100.00;109392.44;5022089;28;20033;-72
2021/12/29 06:51:00;;;;;;;40.73;5.03;;;;;;;5.71;100.00;109717.75;5021971;28;20028;-72
2021/12/29 06:53:29;;;;;;;37.80;4.70;;;;;;;5.77;100.00;108730.41;5024408;28;20109;-72
2021/12/29 06:55:55;;;;;;;47.90;5.27;;;;;;;5.71;100.00;109383.88;5023514;28;20033;-71
2021/12/29 06:58:20;;;;;;;38.07;4.70;;;;;;;5.68;100.00;111043.94;5027277;28;20284;-72
2021/12/29 07:00:45;;;;;;;43.93;5.13;;;;;;;5.72;100.00;109386.75;5024634;28;20061;-72
2021/12/29 07:03:11;;;;;;;44.43;5.23;;;;;;;5.77;100.00;108730.41;5022180;28;20132;-72
2021/12/29 07:05:36;;;;;;;43.30;5.83;;;;;;;5.80;100.00;109068.97;5023711;28;20567;-72
2021/12/29 07:08:02;;;;;;;47.93;4.97;;;;;;;5.76;100.00;110060.25;5023201;28;20051;-72
2021/12/29 07:10:27;;;;;;;38.23;4.67;;;;;;;5.84;100.00;109742.53;5030755;28;20028;-72
2021/12/29 07:12:53;;;;;;;33.50;5.00;;;;;;;5.89;100.00;108419.19;5027418;28;20026;-72
2021/12/29 07:15:18;;;;;;;32.70;4.93;;;;;;;5.94;100.00;109759.72;5021737;28;20603;-72
2021/12/29 07:17:44;;;;;;;37.73;6.70;;;;;;;5.83;100.00;111072.88;5025886;28;20029;-75
2021/12/29 07:20:10;;;;;;;43.27;4.83;;;;;;;5.84;100.00;108743.63;5032887;28;20180;-72
2021/12/29 07:22:35;;;;;;;37.87;5.10;;;;;;;5.91;100.00;108755.00;5023134;28;20036;-72
2021/12/29 07:25:01;;;;;;;39.13;5.10;;;;;;;5.88;100.00;107752.53;5014748;28;20414;-72
2021/12/29 07:27:27;;;;;;;34.60;5.50;;;;;;;5.92;100.00;107758.16;5022871;28;20336;-72
2021/12/29 07:29:52;;;;;;;47.80;4.20;;;;;;;5.81;100.00;108737.00;5030079;28;20428;-71
2021/12/29 07:32:18;;;;;;;47.53;5.13;;;;;;;5.78;100.00;108732.28;5024773;28;20029;-72
2021/12/29 07:34:44;;;;;;;33.87;5.10;;;;;;;5.77;100.00;108064.72;5021455;28;20406;-72
2021/12/29 07:37:11;;;;;;;49.77;5.43;;;;;;;5.75;100.00;108726.63;5027084;28;20029;-72
2021/12/29 07:39:36;;;;;;;40.57;4.80;;;;;;;5.76;100.00;108728.53;5024682;28;20063;-72
2021/12/29 07:42:02;;;;;;;53.00;5.17;;;;;;;5.76;100.00;108395.66;5020952;28;20025;-72
2021/12/29 07:44:28;;;;;;;56.00;5.77;;;;;;;5.72;100.00;108720.03;5019478;28;20021;-71
2021/12/29 07:46:56;;;;;;;52.70;5.53;;;;;;;5.74;100.00;107726.31;5024572;28;20177;-71
2021/12/29 07:49:23;;;;;;;44.87;5.70;;;;;;;5.86;100.00;107415.03;5018631;28;20697;-71
2021/12/29 07:51:49;;;;;;;41.37;5.17;;;;;;;5.86;100.00;105752.38;5023371;28;20034;-71
2021/12/29 07:54:15;;;;;;;59.13;6.10;;;;;;;5.81;100.00;106741.16;5022635;28;20088;-71
2021/12/29 07:56:42;;;;;;;54.93;6.43;;;;;;;5.84;100.00;105747.78;5022224;28;20437;-71
2021/12/29 07:59:07;;;;;;;53.43;6.17;;;;;;;5.87;100.00;106419.56;5021084;28;20033;-70
2021/12/29 08:01:33;;;;;;;51.00;6.37;;;;;;;5.88;100.00;106754.13;5022883;28;20029;-71
2021/12/29 08:03:58;;;;;;;43.33;5.70;;;;;;;5.89;100.00;107088.75;5019494;28;20304;-71
2021/12/29 08:06:24;;;;;;;54.77;6.67;;;;;;;5.88;100.00;105423.41;5018547;28;20120;-71
2021/12/29 08:08:49;;;;;;;55.63;7.20;;;;;;;5.98;100.00;107104.63;5028343;28;20110;-70
2021/12/29 08:11:16;;;;;;;50.00;6.23;;;;;;;6.05;100.00;107783.41;5026232;28;20108;-70
2021/12/29 08:13:42;;;;;;;62.83;6.87;;;;;;;6.00;100.00;107773.13;5022780;28;20041;-71
2021/12/29 08:16:07;;;;;;;52.37;6.73;;;;;;;6.05;100.00;106783.84;5023569;28;20146;-70
2021/12/29 08:18:33;;;;;;;47.60;6.33;;;;;;;6.00;100.00;105443.59;5028503;28;20033;-70
2021/12/29 08:20:58;;;;;;;44.80;6.70;;;;;;;6.08;100.00;104793.78;5023042;28;20083;-71
2021/12/29 08:23:24;;;;;;;53.97;6.17;;;;;;;6.13;100.00;104469.28;5019667;28;20612;-70
2021/12/29 08:25:49;;;;;;;48.37;6.33;;;;;;;6.13;100.00;103804.03;5020197;28;20200;-70
2021/12/29 08:28:15;;;;;;;44.23;6.47;;;;;;;6.12;100.00;103137.09;5029886;28;20067;-70
2021/12/29 08:30:41;;;;;;;51.00;6.37;;;;;;;6.15;100.00;104140.25;5020671;28;20175;-70
2021/12/29 08:33:06;;;;;;;51.43;7.27;;;;;;;6.19;100.00;102817.13;5019888;28;20503;-71
2021/12/29 08:35:32;;;;;;;45.33;6.60;;;;;;;6.22;100.00;104152.94;5012973;28;20025;-71
2021/12/29 08:37:58;;;;;;;43.10;7.00;;;;;;;6.20;100.00;106144.97;5015081;28;20148;-70
2021/12/29 08:40:25;;;;;;;45.93;6.43;;;;;;;6.21;100.00;104816.53;5020428;28;20380;-70
2021/12/29 08:42:50;;;;;;;55.57;6.67;;;;;;;6.24;100.00;104156.53;5018114;28;20048;-70
2021/12/29 08:45:17;;;;;;;49.53;7.90;;;;;;;6.25;100.00;103493.03;5014825;28;20037;-70
2021/12/29 08:47:44;;;;;;;53.13;7.10;;;;;;;6.29;100.00;102834.94;5023631;28;20397;-71
2021/12/29 08:50:13;;;;;;;47.00;6.43;;;;;;;6.26;100.00;102829.59;5023973;28;20045;-70
2021/12/29 08:52:40;;;;;;;46.03;6.60;;;;;;;6.25;100.00;101497.78;5018546;28;20040;-70
2021/12/29 08:55:08;;;;;;;53.43;7.20;;;;;;;6.28;100.00;100838.22;5014061;28;20037;-70
2021/12/29 08:57:33;;;;;;;50.40;6.50;;;;;;;6.30;100.00;99844.69;5020272;28;20036;-70
2021/12/29 08:59:59;;;;;;;49.77;6.63;;;;;;;6.32;100.00;99848.13;5020561;28;20043;-71
2021/12/29 09:02:25;;;;;;;44.37;6.80;;;;;;;6.39;100.00;102187.59;5014711;28;20472;-71
2021/12/29 09:04:51;;;;;;;40.10;5.83;;;;;;;6.37;100.00;101518.09;5014055;28;20064;-71
2021/12/29 09:07:17;;;;;;;41.47;5.90;;;;;;;6.40;100.00;100525.94;5021336;28;20036;-71
2021/12/29 09:09:42;;;;;;;40.30;6.20;;;;;;;6.38;100.00;101187.34;5022710;28;20032;-71
2021/12/29 09:12:08;;;;;;;37.13;6.03;;;;;;;6.40;100.00;99862.00;5019846;28;20562;-71
2021/12/29 09:14:33;;;;;;;43.57;5.60;;;;;;;6.44;100.00;101198.78;5030523;28;20040;-71
2021/12/29 09:16:59;;;;;;;46.07;6.20;;;;;;;6.48;100.00;100872.41;5023413;28;20249;-71
2021/12/29 09:19:25;;;;;;;41.40;5.97;;;;;;;6.50;100.00;101208.44;5019807;28;20037;-70
2021/12/29 09:21:53;;;;;;;37.43;5.77;;;;;;;6.53;100.00;102876.06;5030331;28;20116;-70
2021/12/29 09:24:19;;;;;;;48.67;6.00;;;;;;;6.54;100.00;103210.59;5027333;28;20061;-70
2021/12/29 09:26:45;;;;;;;44.80;6.07;;;;;;;6.52;100.00;105870.00;5020643;28;20129;-70
2021/12/29 09:29:10;;;;;;;48.20;6.63;;;;;;;6.51;100.00;105536.13;5026181;28;20060;-70
2021/12/29 09:31:35;;;;;;;42.97;6.37;;;;;;;6.51;100.00;105202.25;5028728;28;20025;-70
2021/12/29 09:34:01;;;;;;;45.77;7.13;;;;;;;6.53;100.00;103875.28;5019555;28;20038;-70
2021/12/29 09:36:27;;;;;;;55.63;6.50;;;;;;;6.52;100.00;103873.47;5020463;28;20132;-70
2021/12/29 09:38:52;;;;;;;58.73;6.77;;;;;;;6.52;100.00;105537.03;5023485;28;20478;-70
2021/12/29 09:41:18;;;;;;;54.73;6.90;;;;;;;6.50;100.00;105201.34;5018295;28;20029;-70
2021/12/29 09:43:46;;;;;;;62.10;7.60;;;;;;;6.51;100.00;106534.25;5027341;28;20032;-70
2021/12/29 09:46:11;;;;;;;58.73;6.80;;;;;;;6.47;100.00;105529.72;5018790;28;20176;-70
2021/12/29 09:48:37;;;;;;;57.40;7.40;;;;;;;6.50;100.00;106865.47;5022108;28;20037;-70
2021/12/29 09:51:04;;;;;;;70.20;7.83;;;;;;;6.49;100.00;106863.59;5023741;28;20267;-70
2021/12/29 09:53:30;;;;;;;69.43;8.17;;;;;;;6.55;100.00;107208.81;5027690;28;20513;-71
2021/12/29 09:55:56;;;;;;;74.73;8.63;;;;;;;6.57;100.00;107212.53;5019102;28;20141;-70
2021/12/29 09:58:21;;;;;;;74.20;8.43;;;;;;;6.58;100.00;107879.84;5013531;28;20616;-70
2021/12/29 10:00:54;;;;;;;87.20;9.47;;;;;;;6.58;100.00;107213.47;5029392;28;20339;-71
2021/12/29 10:03:21;;;;;;;95.03;10.83;;;;;;;6.57;100.00;110212.28;5021479;28;20053;-71
2021/12/29 10:05:50;;;;;;;96.17;10.93;;;;;;;6.54;100.00;108539.78;5018458;28;20033;-70
2021/12/29 10:08:22;;;;;;;102.27;11.17;;;;;;;6.58;100.00;108213.09;5022832;28;20389;-70
2021/12/29 10:10:51;;;;;;;77.30;10.23;;;;;;;6.59;100.00;107548.50;5027699;28;20029;-71
2021/12/29 10:13:17;;;;;;;96.00;10.00;;;;;;;6.56;100.00;106543.50;5019087;28;20073;-70
2021/12/29 10:15:51;;;;;;;97.70;10.67;;;;;;;6.59;100.00;107882.66;5018031;28;20187;-70
2021/12/29 10:18:23;;;;;;;88.70;11.03;;;;;;;6.63;100.00;108555.78;5021295;28;20401;-71
2021/12/29 10:20:59;;;;;;;111.17;10.87;;;;;;;6.61;100.00;107886.41;5023071;28;20120;-70
2021/12/29 10:23:30;;;;;;;119.97;12.07;;;;;;;6.61;100.00;108885.34;5017482;28;20025;-73
2021/12/29 10:26:03;;;;;;;97.47;11.77;;;;;;;6.67;100.00;108897.66;5018020;28;20041;-70
2021/12/29 10:28:30;;;;;;;117.60;12.37;;;;;;;6.68;100.00;109232.00;5017565;28;20500;-75
2021/12/29 10:31:02;;;;;;;112.00;11.67;;;;;;;6.66;100.00;108894.78;5015081;28;20037;-70
2021/12/29 10:33:47;;;;;;;101.43;11.07;;;;;;;6.69;100.00;109567.31;5011142;28;20509;-70
2021/12/29 10:36:23;;;;;;;96.63;10.90;;;;;;;6.74;100.00;107910.75;5009966;28;20060;-70
2021/12/29 10:38:56;;;;;;;89.50;10.87;;;;;;;6.76;100.00;109580.59;5010125;28;20033;-71
2021/12/29 10:41:22;;;;;;;87.63;11.10;;;;;;;6.79;100.00;109918.91;5012170;28;20548;-70
2021/12/29 10:43:52;;;;;;;105.50;10.50;;;;;;;6.76;100.00;112249.53;5011077;28;20138;-70
2021/12/29 10:46:19;;;;;;;91.77;12.10;;;;;;;6.76;100.00;112250.50;5015587;28;20067;-70
2021/12/29 10:48:50;;;;;;;99.47;11.00;;;;;;;6.77;100.00;111917.75;5011302;28;20029;-70
2021/12/29 10:51:17;;;;;;;101.07;10.73;;;;;;;6.82;100.00;113929.53;5012010;28;20071;-71
2021/12/29 10:53:42;;;;;;;95.33;11.43;;;;;;;6.76;100.00;114252.56;5015206;28;20033;-71
2021/12/29 10:56:19;;;;;;;94.57;10.60;;;;;;;6.76;100.00;114921.50;5015707;28;20064;-69
2021/12/29 10:58:45;;;;;;;80.70;10.53;;;;;;;6.74;100.00;115919.63;5010184;28;20033;-71
2021/12/29 11:01:13;;;;;;;94.10;10.60;;;;;;;6.73;100.00;116920.00;5013723;28;20095;-71
2021/12/29 11:03:47;;;;;;;77.30;9.80;;;;;;;6.73;100.00;116585.84;5013483;28;20053;-69
2021/12/29 11:06:16;;;;;;;77.77;11.00;;;;;;;6.73;100.00;116584.84;5020683;28;20029;-70
2021/12/29 11:08:51;;;;;;;69.20;9.63;;;;;;;6.75;100.00;115253.53;5015215;28;20029;-71
2021/12/29 11:11:19;;;;;;;66.80;8.77;;;;;;;6.76;100.00;114921.50;5021719;28;20037;-69
2021/12/29 11:13:45;;;;;;;75.90;9.87;;;;;;;6.78;100.00;115258.50;5018885;28;20630;-69